createdAt,value
2017-11-13T00:00:10.524Z,98281.06
2017-11-13T00:02:45.679Z,98262.19
2017-11-13T00:05:43.768Z,98267.62
2017-11-13T00:08:16.788Z,98277.76
2017-11-13T00:11:17.982Z,98282.05
2017-11-13T00:13:53.708Z,98286.36
2017-11-13T00:16:44.429Z,98296.84
2017-11-13T00:29:52.098Z,98304.73
2017-11-13T00:32:25.605Z,98314.55
2017-11-13T00:34:59.075Z,98326.75
2017-11-13T00:37:46.192Z,98330.25
2017-11-13T00:40:45.270Z,98341.64
2017-11-13T00:43:27.925Z,98337.52
2017-11-13T00:50:24.120Z,98346.33
2017-11-13T00:56:44.230Z,98372.31
2017-11-13T00:59:15.891Z,98382.89
2017-11-13T01:01:47.311Z,98375.33
2017-11-13T01:04:19.606Z,98380.09
2017-11-13T01:06:51.162Z,98384.02
2017-11-13T01:10:30.929Z,98374.23
2017-11-13T01:14:19.752Z,98370.38
2017-11-13T01:25:32.370Z,98385.22
2017-11-13T01:28:04.991Z,98388.00
2017-11-13T01:30:37.604Z,98396.36
2017-11-13T01:33:13.605Z,98404.69
2017-11-13T01:48:14.773Z,98403.17
2017-11-13T01:50:52.256Z,98404.48
2017-11-13T01:53:44.734Z,98387.38
2017-11-13T01:56:26.884Z,98411.36
2017-11-13T02:02:28.419Z,98408.03
2017-11-13T02:05:28.971Z,98415.80
2017-11-13T02:08:08.475Z,98428.73
2017-11-13T02:10:40.366Z,98430.11
2017-11-13T02:13:12.141Z,98442.76
2017-11-13T02:15:44.625Z,98443.67
2017-11-13T02:18:16.383Z,98450.12
2017-11-13T02:20:47.854Z,98450.64
2017-11-13T02:23:22.697Z,98458.80
2017-11-13T02:25:55.604Z,98455.10
2017-11-13T02:28:27.897Z,98459.20
2017-11-13T02:31:03.179Z,98462.59
2017-11-13T02:33:38.175Z,98467.04
2017-11-13T02:36:14.162Z,98467.70
2017-11-13T02:38:45.898Z,98457.37
2017-11-13T02:41:19.941Z,98458.55
2017-11-13T02:43:54.912Z,98445.90
2017-11-13T02:46:29.418Z,98453.97
2017-11-13T02:49:02.484Z,98465.45
2017-11-13T02:51:36.775Z,98475.83
2017-11-13T02:54:12.140Z,98469.79
2017-11-13T02:56:48.114Z,98467.95
2017-11-13T02:59:21.348Z,98491.66
2017-11-13T03:01:53.070Z,98497.50
2017-11-13T03:04:25.281Z,98499.14
2017-11-13T03:06:59.540Z,98511.19
2017-11-13T03:09:30.625Z,98515.43
2017-11-13T03:12:15.663Z,98520.91
2017-11-13T03:14:51.500Z,98532.17
2017-11-13T03:17:26.650Z,98522.72
2017-11-13T03:19:58.218Z,98529.56
2017-11-13T03:22:30.884Z,98532.62
2017-11-13T03:25:06.723Z,98538.70
2017-11-13T03:27:38.216Z,98536.98
2017-11-13T03:30:17.263Z,98532.88
2017-11-13T03:32:51.312Z,98540.06
2017-11-13T03:35:31.225Z,98543.73
2017-11-13T03:38:03.095Z,98551.62
2017-11-13T03:40:35.544Z,98550.30
2017-11-13T03:43:07.657Z,98563.19
2017-11-13T03:45:42.941Z,98567.42
2017-11-13T03:48:17.666Z,98573.38
2017-11-13T03:50:49.538Z,98578.41
2017-11-13T03:53:26.006Z,98576.96
2017-11-13T03:56:24.055Z,98585.00
2017-11-13T03:59:11.093Z,98584.34
2017-11-13T04:02:14.164Z,98586.23
2017-11-13T04:04:45.822Z,98592.07
2017-11-13T04:07:16.970Z,98595.78
2017-11-13T04:09:54.808Z,98597.55
2017-11-13T04:12:29.510Z,98598.48
2017-11-13T04:15:02.971Z,98593.48
2017-11-13T04:17:37.217Z,98607.14
2017-11-13T04:20:16.805Z,98602.55
2017-11-13T04:22:47.999Z,98617.12
2017-11-13T04:25:19.432Z,98624.17
2017-11-13T04:27:53.256Z,98635.84
2017-11-13T04:30:30.018Z,98639.16
2017-11-13T04:33:01.536Z,98645.55
2017-11-13T04:35:33.418Z,98653.89
2017-11-13T04:38:09.188Z,98648.77
2017-11-13T04:40:41.220Z,98651.41
2017-11-13T04:43:12.498Z,98656.97
2017-11-13T04:45:46.310Z,98662.14
2017-11-13T04:48:17.728Z,98654.83
2017-11-13T04:50:49.648Z,98653.77
2017-11-13T04:53:20.922Z,98663.00
2017-11-13T04:55:57.895Z,98664.28
2017-11-13T04:58:33.188Z,98657.66
2017-11-13T05:01:07.965Z,98654.30
2017-11-13T05:03:45.270Z,98654.00
2017-11-13T05:06:18.845Z,98673.97
2017-11-13T05:08:50.131Z,98670.39
2017-11-13T05:11:21.536Z,98678.17
2017-11-13T05:13:53.251Z,98686.61
2017-11-13T05:16:25.063Z,98685.84
2017-11-13T05:18:56.388Z,98696.98
2017-11-13T05:21:29.550Z,98686.82
2017-11-13T05:24:07.489Z,98705.86
2017-11-13T05:26:40.550Z,98695.47
2017-11-13T05:29:13.905Z,98694.28
2017-11-13T05:31:47.823Z,98689.91
2017-11-13T05:37:21.784Z,98690.91
2017-11-13T05:39:53.011Z,98700.45
2017-11-13T05:42:32.756Z,98691.75
2017-11-13T05:45:09.371Z,98704.59
2017-11-13T05:47:44.085Z,98710.29
2017-11-13T05:50:33.039Z,98710.98
2017-11-13T05:53:08.652Z,98715.09
2017-11-13T05:55:50.797Z,98727.80
2017-11-13T05:58:22.450Z,98735.46
2017-11-13T06:00:53.796Z,98741.92
2017-11-13T06:03:27.193Z,98744.94
2017-11-13T06:06:12.428Z,98735.59
2017-11-13T06:08:47.105Z,98743.24
2017-11-13T06:11:21.060Z,98752.08
2017-11-13T06:16:35.297Z,98760.55
2017-11-13T06:19:07.900Z,98748.77
2017-11-13T06:21:47.564Z,98764.23
2017-11-13T06:24:20.185Z,98769.01
2017-11-13T06:26:52.149Z,98769.83
2017-11-13T06:29:23.372Z,98765.86
2017-11-13T06:34:38.519Z,98780.45
2017-11-13T06:37:10.293Z,98781.94
2017-11-13T06:39:49.854Z,98783.77
2017-11-13T06:42:21.691Z,98786.58
2017-11-13T06:44:53.235Z,98795.86
2017-11-13T06:47:24.608Z,98799.07
2017-11-13T06:49:56.225Z,98794.46
2017-11-13T06:52:28.575Z,98801.62
2017-11-13T06:54:59.949Z,98807.58
2017-11-13T06:57:35.992Z,98810.76
2017-11-13T07:00:12.863Z,98811.19
2017-11-13T07:02:45.322Z,98823.52
2017-11-13T07:05:18.521Z,98830.00
2017-11-13T07:07:50.334Z,98824.17
2017-11-13T07:10:22.571Z,98819.13
2017-11-13T07:12:57.761Z,98826.66
2017-11-13T07:15:29.296Z,98840.26
2017-11-13T08:01:42.946Z,98898.91
2017-11-13T08:04:15.318Z,98909.41
2017-11-13T08:09:28.320Z,98912.06
2017-11-13T08:12:01.596Z,98919.19
2017-11-13T08:16:02.324Z,98926.62
2017-11-13T08:18:42.882Z,98930.20
2017-11-13T08:21:19.825Z,98937.09
2017-11-13T08:23:59.714Z,98943.88
2017-11-13T08:26:44.605Z,98947.70
2017-11-13T08:29:20.022Z,98959.39
2017-11-13T08:31:51.606Z,98964.00
2017-11-13T08:34:27.951Z,98970.50
2017-11-13T08:37:00.403Z,98972.50
2017-11-13T08:39:32.175Z,98985.30
2017-11-13T08:42:03.791Z,98987.52
2017-11-13T08:44:35.499Z,98986.41
2017-11-13T08:47:25.520Z,98986.91
2017-11-13T08:49:56.985Z,99000.25
2017-11-13T08:52:29.371Z,98997.30
2017-11-13T08:55:04.775Z,98990.66
2017-11-13T08:57:36.353Z,98991.79
2017-11-13T09:00:08.596Z,99006.66
2017-11-13T09:02:43.532Z,99001.25
2017-11-13T09:05:14.789Z,99018.86
2017-11-13T09:07:46.111Z,99022.72
2017-11-13T09:10:18.432Z,99033.47
2017-11-13T09:12:51.027Z,99044.09
2017-11-13T09:15:29.994Z,99053.91
2017-11-13T09:18:13.309Z,99050.99
2017-11-13T09:20:44.912Z,99053.68
2017-11-13T09:23:20.199Z,99048.93
2017-11-13T09:28:36.489Z,99049.20
2017-11-13T09:31:11.422Z,99037.04
2017-11-13T09:33:46.118Z,99052.01
2017-11-13T09:36:18.817Z,99056.52
2017-11-13T09:38:50.199Z,99061.43
2017-11-13T09:41:25.167Z,99061.19
2017-11-13T09:44:02.543Z,99064.91
2017-11-13T09:46:37.719Z,99058.27
2017-11-13T09:49:09.633Z,99070.75
2017-11-13T09:51:40.779Z,99078.68
2017-11-13T09:54:13.663Z,99085.59
2017-11-13T09:56:45.591Z,99087.58
2017-11-13T09:59:17.233Z,99091.38
2017-11-13T10:01:48.216Z,99089.49
2017-11-13T10:04:19.397Z,99093.55
2017-11-13T10:06:51.216Z,99091.92
2017-11-13T10:09:22.438Z,99093.89
2017-11-13T10:11:53.610Z,99102.39
2017-11-13T10:14:44.536Z,99089.50
2017-11-13T10:17:16.202Z,99098.23
2017-11-13T10:19:47.988Z,99108.16
2017-11-13T10:22:19.489Z,99096.88
2017-11-13T10:24:51.558Z,99088.67
2017-11-13T10:27:23.148Z,99089.17
2017-11-13T10:29:54.765Z,99094.22
2017-11-13T10:32:25.778Z,99100.98
2017-11-13T10:34:58.039Z,99102.59
2017-11-13T10:37:29.831Z,99093.98
2017-11-13T10:40:01.596Z,99096.11
2017-11-13T10:42:32.788Z,99105.54
2017-11-13T10:45:04.644Z,99115.27
2017-11-13T10:47:38.264Z,99120.48
2017-11-13T10:50:11.507Z,99119.98
2017-11-13T10:52:44.412Z,99125.72
2017-11-13T10:55:18.330Z,99138.75
2017-11-13T10:57:50.909Z,99148.44
2017-11-13T11:00:22.934Z,99150.82
2017-11-13T11:02:55.887Z,99149.39
2017-11-13T11:05:27.909Z,99156.69
2017-11-13T11:07:59.309Z,99149.78
2017-11-13T11:10:31.228Z,99150.20
2017-11-13T11:13:03.937Z,99155.66
2017-11-13T11:15:36.966Z,99163.75
2017-11-13T11:18:10.354Z,99149.70
2017-11-13T11:20:42.298Z,99165.75
2017-11-13T11:23:13.809Z,99165.20
2017-11-13T11:25:45.361Z,99159.47
2017-11-13T11:28:17.227Z,99154.83
2017-11-13T11:30:48.877Z,99158.26
2017-11-13T11:33:21.615Z,99160.13
2017-11-13T11:35:53.837Z,99156.39
2017-11-13T11:38:25.399Z,99164.30
2017-11-13T11:58:09.366Z,99151.00
2017-11-13T12:00:41.507Z,99179.28
2017-11-13T12:08:58.289Z,99172.00
2017-11-13T12:11:43.497Z,99183.41
2017-11-13T12:21:12.777Z,99196.92
2017-11-13T12:29:50.701Z,99217.33
2017-11-13T12:32:21.978Z,99230.86
2017-11-13T12:35:37.108Z,99219.30
2017-11-13T13:57:07.974Z,99305.80
2017-11-13T13:59:41.395Z,99325.59
2017-11-13T14:02:12.680Z,99322.01
2017-11-13T14:06:41.521Z,99328.80
2017-11-13T14:11:04.576Z,99353.52
2017-11-13T14:17:52.148Z,99337.19
2017-11-13T14:27:16.770Z,99343.69
2017-11-13T15:03:58.960Z,99405.95
2017-11-13T15:16:36.305Z,99400.62
2017-11-13T15:20:28.645Z,99382.53
2017-11-13T15:23:04.552Z,99388.79
2017-11-13T15:26:18.713Z,99390.92
2017-11-13T15:30:08.177Z,99388.11
2017-11-13T15:32:39.739Z,99406.92
2017-11-13T15:35:27.433Z,99413.69
2017-11-13T15:38:00.104Z,99420.98
2017-11-13T15:40:32.446Z,99423.21
2017-11-13T15:43:20.719Z,99424.52
2017-11-13T15:52:49.035Z,99422.67
2017-11-13T15:55:21.407Z,99440.54
2017-11-13T15:57:53.031Z,99458.35
2017-11-13T16:00:24.958Z,99450.64
2017-11-13T16:02:57.353Z,99460.84
2017-11-13T16:05:29.387Z,99462.86
2017-11-13T16:08:00.488Z,99472.41
2017-11-13T16:10:32.351Z,99472.94
2017-11-13T16:13:04.419Z,99467.61
2017-11-13T16:15:35.660Z,99483.52
2017-11-13T16:25:15.044Z,99491.45
2017-11-13T16:38:27.746Z,99511.66
2017-11-13T16:52:15.802Z,99514.97
2017-11-13T16:57:38.892Z,99532.48
2017-11-13T17:03:08.496Z,99543.08
2017-11-13T17:05:42.666Z,99540.16
2017-11-13T17:08:17.172Z,99552.48
2017-11-13T17:10:53.012Z,99551.43
2017-11-13T17:13:28.993Z,99555.28
2017-11-13T17:16:03.719Z,99557.41
2017-11-13T17:18:40.545Z,99554.80
2017-11-13T18:01:15.110Z,99622.60
2017-11-13T18:03:55.197Z,99639.38
2017-11-13T18:07:49.110Z,99641.06
2017-11-13T18:27:06.115Z,99631.38
2017-11-13T18:30:03.930Z,99647.12
2017-11-13T18:32:36.002Z,99648.44
2017-11-13T18:54:44.588Z,99695.02
2017-11-13T19:00:21.307Z,99703.00
2017-11-13T20:24:08.694Z,99752.05
2017-11-13T20:27:23.338Z,99721.75
2017-11-13T20:36:46.174Z,99727.93
2017-11-13T20:42:47.036Z,99760.45
2017-11-13T20:58:39.838Z,99765.00
2017-11-13T21:37:36.534Z,99800.51
2017-11-13T21:40:30.360Z,99799.41
2017-11-13T21:43:03.922Z,99796.02
2017-11-13T21:45:42.466Z,99788.64
2017-11-13T21:50:45.285Z,99794.17
2017-11-13T21:53:19.043Z,99791.55
2017-11-13T21:55:51.395Z,99793.95
2017-11-13T21:58:32.884Z,99805.25
2017-11-13T22:01:04.951Z,99791.84
2017-11-13T22:06:42.877Z,99818.38
2017-11-13T22:09:15.145Z,99812.14
2017-11-13T22:11:52.065Z,99819.23
2017-11-13T22:14:43.450Z,99820.95
2017-11-13T22:17:15.780Z,99818.49
2017-11-13T22:19:49.173Z,99807.59
2017-11-13T22:22:20.825Z,99817.73
2017-11-13T22:24:54.417Z,99813.88
2017-11-13T22:27:29.905Z,99812.39
2017-11-13T22:30:06.117Z,99825.16
2017-11-13T22:32:39.652Z,99826.32
2017-11-13T22:35:13.326Z,99821.36
2017-11-13T22:37:46.403Z,99824.14
2017-11-13T22:40:22.331Z,99835.66
2017-11-13T22:42:54.099Z,99839.63
2017-11-13T22:45:27.888Z,99835.31
2017-11-13T22:48:04.199Z,99840.21
2017-11-13T22:59:08.403Z,99837.22
2017-11-13T23:03:05.868Z,99835.45
2017-11-13T23:05:39.812Z,99835.80
2017-11-13T23:08:11.083Z,99841.16
2017-11-13T23:10:49.427Z,99844.20
2017-11-13T23:13:24.492Z,99832.35
2017-11-13T23:16:03.662Z,99849.85
2017-11-13T23:18:42.035Z,99842.45
2017-11-13T23:21:13.350Z,99844.62
2017-11-13T23:23:46.862Z,99845.95
